sensor_id;sensor_type;location;lat;lon;timestamp;pressure;altitude;pressure_sealevel;temperature;humidity
30021;BME280;16861;52.294;7.760;2022-07-10T00:00:55;100763.38;;;17.21;49.24
30021;BME280;16861;52.294;7.760;2022-07-10T00:03:22;100755.94;;;17.13;49.39
30021;BME280;16861;52.294;7.760;2022-07-10T00:05:49;100752.63;;;17.10;49.59
30021;BME280;16861;52.294;7.760;2022-07-10T00:08:16;100752.00;;;17.06;49.52
30021;BME280;16861;52.294;7.760;2022-07-10T00:10:43;100754.00;;;17.02;49.66
30021;BME280;16861;52.294;7.760;2022-07-10T00:13:09;100763.97;;;16.99;49.88
30021;BME280;16861;52.294;7.760;2022-07-10T00:15:36;100753.56;;;16.96;50.11
30021;BME280;16861;52.294;7.760;2022-07-10T00:18:03;100755.56;;;16.92;50.04
30021;BME280;16861;52.294;7.760;2022-07-10T00:20:29;100758.41;;;16.89;50.25
30021;BME280;16861;52.294;7.760;2022-07-10T00:22:56;100763.00;;;16.87;50.46
30021;BME280;16861;52.294;7.760;2022-07-10T00:25:27;100761.31;;;16.86;50.68
30021;BME280;16861;52.294;7.760;2022-07-10T00:27:54;100768.41;;;16.85;50.69
30021;BME280;16861;52.294;7.760;2022-07-10T00:30:21;100773.63;;;16.87;51.02
30021;BME280;16861;52.294;7.760;2022-07-10T00:32:47;100769.03;;;16.89;51.03
30021;BME280;16861;52.294;7.760;2022-07-10T00:35:14;100760.03;;;16.91;51.06
30021;BME280;16861;52.294;7.760;2022-07-10T00:37:40;100762.56;;;16.93;51.00
30021;BME280;16861;52.294;7.760;2022-07-10T00:40:07;100765.22;;;16.93;51.08
30021;BME280;16861;52.294;7.760;2022-07-10T00:42:34;100762.56;;;16.93;51.03
30021;BME280;16861;52.294;7.760;2022-07-10T00:45:01;100763.34;;;16.95;51.06
30021;BME280;16861;52.294;7.760;2022-07-10T00:47:27;100759.81;;;16.94;51.24
30021;BME280;16861;52.294;7.760;2022-07-10T00:49:54;100759.72;;;16.96;51.31
30021;BME280;16861;52.294;7.760;2022-07-10T00:52:21;100761.41;;;16.97;51.27
30021;BME280;16861;52.294;7.760;2022-07-10T00:54:48;100764.81;;;16.99;51.24
30021;BME280;16861;52.294;7.760;2022-07-10T00:57:19;100758.53;;;17.00;51.35
30021;BME280;16861;52.294;7.760;2022-07-10T00:59:48;100755.88;;;17.00;51.45
30021;BME280;16861;52.294;7.760;2022-07-10T01:02:15;100748.66;;;17.02;51.02
30021;BME280;16861;52.294;7.760;2022-07-10T01:04:42;100746.84;;;17.03;51.47
30021;BME280;16861;52.294;7.760;2022-07-10T01:07:09;100737.06;;;17.03;51.36
30021;BME280;16861;52.294;7.760;2022-07-10T01:09:37;100743.22;;;17.04;51.66
30021;BME280;16861;52.294;7.760;2022-07-10T01:12:04;100737.06;;;17.03;51.29
30021;BME280;16861;52.294;7.760;2022-07-10T01:14:31;100730.81;;;17.04;51.48
30021;BME280;16861;52.294;7.760;2022-07-10T01:16:58;100741.44;;;17.04;51.41
30021;BME280;16861;52.294;7.760;2022-07-10T01:19:25;100731.69;;;17.05;51.29
30021;BME280;16861;52.294;7.760;2022-07-10T01:21:52;100730.81;;;17.04;51.47
30021;BME280;16861;52.294;7.760;2022-07-10T01:24:18;100734.34;;;17.05;51.40
30021;BME280;16861;52.294;7.760;2022-07-10T01:26:45;100735.22;;;17.04;51.30
30021;BME280;16861;52.294;7.760;2022-07-10T01:29:12;100730.97;;;17.01;51.31
30021;BME280;16861;52.294;7.760;2022-07-10T01:31:38;100731.22;;;16.98;51.46
30021;BME280;16861;52.294;7.760;2022-07-10T01:34:08;100732.38;;;16.94;51.33
30021;BME280;16861;52.294;7.760;2022-07-10T01:36:36;100720.16;;;16.91;51.51
30021;BME280;16861;52.294;7.760;2022-07-10T01:39:03;100716.81;;;16.88;51.66
30021;BME280;16861;52.294;7.760;2022-07-10T01:41:30;100707.16;;;16.87;51.60
30021;BME280;16861;52.294;7.760;2022-07-10T01:43:57;100710.78;;;16.86;51.77
30021;BME280;16861;52.294;7.760;2022-07-10T01:46:23;100706.53;;;16.83;51.79
30021;BME280;16861;52.294;7.760;2022-07-10T01:48:51;100705.75;;;16.81;51.87
30021;BME280;16861;52.294;7.760;2022-07-10T01:51:17;100720.97;;;16.79;51.71
30021;BME280;16861;52.294;7.760;2022-07-10T01:53:44;100706.91;;;16.77;51.87
30021;BME280;16861;52.294;7.760;2022-07-10T01:56:12;100702.66;;;16.74;52.08
30021;BME280;16861;52.294;7.760;2022-07-10T01:58:40;100699.28;;;16.72;52.26
30021;BME280;16861;52.294;7.760;2022-07-10T02:01:09;100698.41;;;16.72;52.19
30021;BME280;16861;52.294;7.760;2022-07-10T02:03:36;100705.53;;;16.71;52.17
30021;BME280;16861;52.294;7.760;2022-07-10T02:06:21;100691.50;;;16.69;52.29
30021;BME280;16861;52.294;7.760;2022-07-10T02:08:47;100700.44;;;16.68;52.42
30021;BME280;16861;52.294;7.760;2022-07-10T02:11:14;100704.03;;;16.67;52.38
30021;BME280;16861;52.294;7.760;2022-07-10T02:13:40;100698.72;;;16.67;52.33
30021;BME280;16861;52.294;7.760;2022-07-10T02:16:07;100705.84;;;16.66;52.57
30021;BME280;16861;52.294;7.760;2022-07-10T02:18:34;100694.34;;;16.66;52.68
30021;BME280;16861;52.294;7.760;2022-07-10T02:21:02;100696.06;;;16.67;52.70
30021;BME280;16861;52.294;7.760;2022-07-10T02:23:28;100689.03;;;16.66;52.75
30021;BME280;16861;52.294;7.760;2022-07-10T02:25:55;100690.75;;;16.67;52.83
30021;BME280;16861;52.294;7.760;2022-07-10T02:28:22;100688.94;;;16.67;53.01
30021;BME280;16861;52.294;7.760;2022-07-10T02:30:49;100678.22;;;16.69;52.97
30021;BME280;16861;52.294;7.760;2022-07-10T02:33:15;100679.91;;;16.70;52.76
30021;BME280;16861;52.294;7.760;2022-07-10T02:35:42;100682.56;;;16.70;52.79
30021;BME280;16861;52.294;7.760;2022-07-10T02:38:09;100677.25;;;16.70;52.77
30021;BME280;16861;52.294;7.760;2022-07-10T02:40:35;100673.75;;;16.70;52.91
30021;BME280;16861;52.294;7.760;2022-07-10T02:43:02;100673.75;;;16.70;52.95
30021;BME280;16861;52.294;7.760;2022-07-10T02:45:28;100671.94;;;16.70;53.01
30021;BME280;16861;52.294;7.760;2022-07-10T02:47:55;100670.97;;;16.71;52.84
30021;BME280;16861;52.294;7.760;2022-07-10T02:50:21;100673.63;;;16.71;52.79
30021;BME280;16861;52.294;7.760;2022-07-10T02:52:48;100674.38;;;16.73;52.87
30021;BME280;16861;52.294;7.760;2022-07-10T02:55:15;100664.72;;;16.72;53.03
30021;BME280;16861;52.294;7.760;2022-07-10T02:57:41;100670.88;;;16.73;52.87
30021;BME280;16861;52.294;7.760;2022-07-10T03:00:09;100669.06;;;16.73;52.83
30021;BME280;16861;52.294;7.760;2022-07-10T03:02:35;100672.69;;;16.72;52.95
30021;BME280;16861;52.294;7.760;2022-07-10T03:05:02;100670.03;;;16.72;52.85
30021;BME280;16861;52.294;7.760;2022-07-10T03:07:29;100663.94;;;16.70;52.82
30021;BME280;16861;52.294;7.760;2022-07-10T03:09:55;100664.91;;;16.69;52.98
30021;BME280;16861;52.294;7.760;2022-07-10T03:12:22;100670.22;;;16.69;53.10
30021;BME280;16861;52.294;7.760;2022-07-10T03:14:48;100666.72;;;16.68;53.18
30021;BME280;16861;52.294;7.760;2022-07-10T03:17:15;100667.56;;;16.69;53.30
30021;BME280;16861;52.294;7.760;2022-07-10T03:19:42;100667.56;;;16.69;53.18
30021;BME280;16861;52.294;7.760;2022-07-10T03:22:08;100660.47;;;16.70;53.22
30021;BME280;16861;52.294;7.760;2022-07-10T03:24:35;100669.38;;;16.68;53.26
30021;BME280;16861;52.294;7.760;2022-07-10T03:27:01;100667.69;;;16.67;53.37
30021;BME280;16861;52.294;7.760;2022-07-10T03:29:28;100666.81;;;16.67;53.32
30021;BME280;16861;52.294;7.760;2022-07-10T03:31:55;100673.00;;;16.67;53.37
30021;BME280;16861;52.294;7.760;2022-07-10T03:34:21;100665.97;;;16.66;53.55
30021;BME280;16861;52.294;7.760;2022-07-10T03:36:48;100678.31;;;16.67;53.60
30021;BME280;16861;52.294;7.760;2022-07-10T03:39:14;100670.34;;;16.67;53.75
30021;BME280;16861;52.294;7.760;2022-07-10T03:41:41;100673.84;;;16.68;53.75
30021;BME280;16861;52.294;7.760;2022-07-10T03:44:07;100675.56;;;16.69;53.74
30021;BME280;16861;52.294;7.760;2022-07-10T03:46:34;100670.22;;;16.69;53.70
30021;BME280;16861;52.294;7.760;2022-07-10T03:49:01;100679.06;;;16.70;53.73
30021;BME280;16861;52.294;7.760;2022-07-10T03:51:27;100678.22;;;16.69;53.69
30021;BME280;16861;52.294;7.760;2022-07-10T03:53:54;100683.53;;;16.69;53.83
30021;BME280;16861;52.294;7.760;2022-07-10T03:56:20;100693.28;;;16.68;53.72
30021;BME280;16861;52.294;7.760;2022-07-10T03:59:05;100698.63;;;16.68;53.72
30021;BME280;16861;52.294;7.760;2022-07-10T04:01:32;100694.16;;;16.69;53.94
30021;BME280;16861;52.294;7.760;2022-07-10T04:03:58;100694.16;;;16.69;53.94
30021;BME280;16861;52.294;7.760;2022-07-10T04:06:25;100683.53;;;16.69;53.86
30021;BME280;16861;52.294;7.760;2022-07-10T04:08:52;100684.38;;;16.70;53.92
30021;BME280;16861;52.294;7.760;2022-07-10T04:11:18;100682.56;;;16.70;54.16
30021;BME280;16861;52.294;7.760;2022-07-10T04:13:45;100693.19;;;16.70;54.07
30021;BME280;16861;52.294;7.760;2022-07-10T04:16:11;100681.59;;;16.71;54.25
30021;BME280;16861;52.294;7.760;2022-07-10T04:18:39;100681.59;;;16.71;54.28
30021;BME280;16861;52.294;7.760;2022-07-10T04:21:07;100686.81;;;16.73;54.13
30021;BME280;16861;52.294;7.760;2022-07-10T04:23:34;100686.72;;;16.74;54.40
30021;BME280;16861;52.294;7.760;2022-07-10T04:26:01;100688.41;;;16.75;54.29
30021;BME280;16861;52.294;7.760;2022-07-10T04:28:27;100682.16;;;16.76;54.30
30021;BME280;16861;52.294;7.760;2022-07-10T04:30:54;100682.03;;;16.78;54.26
30021;BME280;16861;52.294;7.760;2022-07-10T04:33:21;100689.91;;;16.79;54.38
30021;BME280;16861;52.294;7.760;2022-07-10T04:35:48;100680.13;;;16.80;54.15
30021;BME280;16861;52.294;7.760;2022-07-10T04:38:14;100687.25;;;16.79;54.47
30021;BME280;16861;52.294;7.760;2022-07-10T04:40:41;100685.56;;;16.78;54.46
30021;BME280;16861;52.294;7.760;2022-07-10T04:43:07;100683.75;;;16.79;54.36
30021;BME280;16861;52.294;7.760;2022-07-10T04:45:36;100686.31;;;16.80;54.59
30021;BME280;16861;52.294;7.760;2022-07-10T04:48:05;100684.38;;;16.83;54.47
30021;BME280;16861;52.294;7.760;2022-07-10T04:50:31;100671.84;;;16.85;54.53
30021;BME280;16861;52.294;7.760;2022-07-10T04:52:58;100679.59;;;16.88;54.66
30021;BME280;16861;52.294;7.760;2022-07-10T04:55:25;100675.97;;;16.89;54.50
30021;BME280;16861;52.294;7.760;2022-07-10T04:57:51;100675.78;;;16.92;54.44
30021;BME280;16861;52.294;7.760;2022-07-10T05:00:18;100680.13;;;16.93;54.64
30021;BME280;16861;52.294;7.760;2022-07-10T05:02:44;100686.19;;;16.95;54.42
30021;BME280;16861;52.294;7.760;2022-07-10T05:05:11;100681.50;;;16.99;54.59
30021;BME280;16861;52.294;7.760;2022-07-10T05:07:38;100679.50;;;17.02;54.33
30021;BME280;16861;52.294;7.760;2022-07-10T05:10:05;100679.38;;;17.04;54.49
30021;BME280;16861;52.294;7.760;2022-07-10T05:12:32;100673.88;;;17.07;54.45
30021;BME280;16861;52.294;7.760;2022-07-10T05:14:58;100674.75;;;17.08;54.41
30021;BME280;16861;52.294;7.760;2022-07-10T05:17:27;100679.84;;;17.11;54.66
30021;BME280;16861;52.294;7.760;2022-07-10T05:19:55;100687.59;;;17.14;54.50
30021;BME280;16861;52.294;7.760;2022-07-10T05:22:23;100688.38;;;17.16;54.37
30021;BME280;16861;52.294;7.760;2022-07-10T05:24:50;100689.97;;;17.18;54.25
30021;BME280;16861;52.294;7.760;2022-07-10T05:27:17;100694.22;;;17.21;54.17
30021;BME280;16861;52.294;7.760;2022-07-10T05:29:46;100697.59;;;17.23;54.32
30021;BME280;16861;52.294;7.760;2022-07-10T05:32:13;100684.09;;;17.26;54.19
30021;BME280;16861;52.294;7.760;2022-07-10T05:34:41;100690.16;;;17.28;54.10
30021;BME280;16861;52.294;7.760;2022-07-10T05:37:07;100691.75;;;17.31;54.07
30021;BME280;16861;52.294;7.760;2022-07-10T05:39:34;100686.31;;;17.32;53.88
30021;BME280;16861;52.294;7.760;2022-07-10T05:42:01;100692.38;;;17.35;53.73
30021;BME280;16861;52.294;7.760;2022-07-10T05:44:27;100688.75;;;17.36;53.63
30021;BME280;16861;52.294;7.760;2022-07-10T05:46:54;100690.44;;;17.37;53.62
30021;BME280;16861;52.294;7.760;2022-07-10T05:49:21;100685.13;;;17.37;53.52
30021;BME280;16861;52.294;7.760;2022-07-10T05:51:47;100689.50;;;17.38;53.53
30021;BME280;16861;52.294;7.760;2022-07-10T05:54:14;100688.44;;;17.40;53.69
30021;BME280;16861;52.294;7.760;2022-07-10T05:56:41;100693.66;;;17.42;53.62
30021;BME280;16861;52.294;7.760;2022-07-10T05:59:07;100689.06;;;17.44;53.59
30021;BME280;16861;52.294;7.760;2022-07-10T06:01:34;100697.66;;;17.48;53.40
30021;BME280;16861;52.294;7.760;2022-07-10T06:04:00;100684.16;;;17.51;53.32
30021;BME280;16861;52.294;7.760;2022-07-10T06:06:27;100694.59;;;17.54;53.35
30021;BME280;16861;52.294;7.760;2022-07-10T06:08:54;100689.06;;;17.57;53.18
30021;BME280;16861;52.294;7.760;2022-07-10T06:11:21;100687.00;;;17.61;53.43
30021;BME280;16861;52.294;7.760;2022-07-10T06:13:48;100687.72;;;17.63;53.10
30021;BME280;16861;52.294;7.760;2022-07-10T06:16:14;100690.06;;;17.67;53.27
30021;BME280;16861;52.294;7.760;2022-07-10T06:18:41;100689.63;;;17.74;53.31
30021;BME280;16861;52.294;7.760;2022-07-10T06:21:08;100689.19;;;17.80;52.86
30021;BME280;16861;52.294;7.760;2022-07-10T06:23:35;100685.34;;;17.84;52.99
30021;BME280;16861;52.294;7.760;2022-07-10T06:26:02;100694.91;;;17.87;52.82
30021;BME280;16861;52.294;7.760;2022-07-10T06:28:28;100686.81;;;17.88;52.58
30021;BME280;16861;52.294;7.760;2022-07-10T06:30:55;100699.16;;;17.89;52.39
30021;BME280;16861;52.294;7.760;2022-07-10T06:33:26;100696.41;;;17.91;52.45
30021;BME280;16861;52.294;7.760;2022-07-10T06:35:52;100694.47;;;17.93;52.68
30021;BME280;16861;52.294;7.760;2022-07-10T06:38:19;100698.72;;;17.95;53.00
30021;BME280;16861;52.294;7.760;2022-07-10T06:40:47;100690.41;;;18.00;53.12
30021;BME280;16861;52.294;7.760;2022-07-10T06:43:13;100689.94;;;18.06;52.99
30021;BME280;16861;52.294;7.760;2022-07-10T06:45:40;100680.56;;;18.14;52.93
30021;BME280;16861;52.294;7.760;2022-07-10T06:48:07;100681.81;;;18.21;52.64
30021;BME280;16861;52.294;7.760;2022-07-10T06:50:34;100683.03;;;18.28;52.49
30021;BME280;16861;52.294;7.760;2022-07-10T06:53:02;100679.91;;;18.34;52.35
30021;BME280;16861;52.294;7.760;2022-07-10T06:55:30;100684.06;;;18.39;52.16
30021;BME280;16861;52.294;7.760;2022-07-10T06:57:58;100686.47;;;18.42;51.38
30021;BME280;16861;52.294;7.760;2022-07-10T07:00:25;100684.34;;;18.47;51.69
30021;BME280;16861;52.294;7.760;2022-07-10T07:02:52;100686.03;;;18.48;51.60
30021;BME280;16861;52.294;7.760;2022-07-10T07:05:19;100691.00;;;18.53;52.17
30021;BME280;16861;52.294;7.760;2022-07-10T07:07:46;100689.78;;;18.57;51.98
30021;BME280;16861;52.294;7.760;2022-07-10T07:10:13;100677.69;;;18.64;51.49
30021;BME280;16861;52.294;7.760;2022-07-10T07:12:39;100671.06;;;18.70;51.39
30021;BME280;16861;52.294;7.760;2022-07-10T07:15:07;100682.09;;;18.77;51.09
30021;BME280;16861;52.294;7.760;2022-07-10T07:17:39;100689.00;;;18.79;51.02
30021;BME280;16861;52.294;7.760;2022-07-10T07:20:25;100683.94;;;18.87;50.79
30021;BME280;16861;52.294;7.760;2022-07-10T07:23:10;100696.06;;;18.92;51.00
30021;BME280;16861;52.294;7.760;2022-07-10T07:25:38;100692.41;;;18.93;51.12
30021;BME280;16861;52.294;7.760;2022-07-10T07:28:08;100694.84;;;18.96;51.18
30021;BME280;16861;52.294;7.760;2022-07-10T07:30:36;100692.91;;;18.98;51.30
30021;BME280;16861;52.294;7.760;2022-07-10T07:33:04;100694.38;;;19.02;51.09
30021;BME280;16861;52.294;7.760;2022-07-10T07:35:30;100694.91;;;19.07;51.12
30021;BME280;16861;52.294;7.760;2022-07-10T07:37:57;100698.06;;;19.12;51.43
30021;BME280;16861;52.294;7.760;2022-07-10T07:40:24;100696.75;;;19.18;51.20
30021;BME280;16861;52.294;7.760;2022-07-10T07:42:54;100707.63;;;19.26;51.11
30021;BME280;16861;52.294;7.760;2022-07-10T07:45:21;100702.66;;;19.33;51.13
30021;BME280;16861;52.294;7.760;2022-07-10T07:47:53;100703.88;;;19.40;51.20
30021;BME280;16861;52.294;7.760;2022-07-10T07:50:24;100703.16;;;19.50;50.95
30021;BME280;16861;52.294;7.760;2022-07-10T07:52:53;100705.34;;;19.56;50.94
30021;BME280;16861;52.294;7.760;2022-07-10T07:55:21;100699.72;;;19.59;50.88
30021;BME280;16861;52.294;7.760;2022-07-10T07:57:51;100701.19;;;19.63;50.84
30021;BME280;16861;52.294;7.760;2022-07-10T08:00:20;100698.16;;;19.68;50.84
30021;BME280;16861;52.294;7.760;2022-07-10T08:02:53;100704.94;;;19.72;50.98
30021;BME280;16861;52.294;7.760;2022-07-10T08:05:20;100706.28;;;19.78;50.97
30021;BME280;16861;52.294;7.760;2022-07-10T08:07:51;100700.66;;;19.81;50.39
30021;BME280;16861;52.294;7.760;2022-07-10T08:10:20;100709.31;;;19.85;50.62
30021;BME280;16861;52.294;7.760;2022-07-10T08:12:47;100699.44;;;19.85;50.51
30021;BME280;16861;52.294;7.760;2022-07-10T08:15:16;100698.50;;;19.86;50.75
30021;BME280;16861;52.294;7.760;2022-07-10T08:17:42;100699.22;;;19.88;50.64
30021;BME280;16861;52.294;7.760;2022-07-10T08:20:11;100698.97;;;19.91;50.81
30021;BME280;16861;52.294;7.760;2022-07-10T08:22:39;100696.88;;;19.95;51.12
30021;BME280;16861;52.294;7.760;2022-07-10T08:25:07;100694.59;;;20.02;51.15
30021;BME280;16861;52.294;7.760;2022-07-10T08:27:35;100697.47;;;20.10;50.89
30021;BME280;16861;52.294;7.760;2022-07-10T08:30:01;100689.44;;;20.22;51.14
30021;BME280;16861;52.294;7.760;2022-07-10T08:32:28;100694.00;;;20.31;50.97
30021;BME280;16861;52.294;7.760;2022-07-10T08:34:55;100693.22;;;20.40;49.83
30021;BME280;16861;52.294;7.760;2022-07-10T08:37:22;100686.53;;;20.46;50.11
30021;BME280;16861;52.294;7.760;2022-07-10T08:39:49;100689.78;;;20.50;50.01
30021;BME280;16861;52.294;7.760;2022-07-10T08:42:16;100689.41;;;20.54;50.07
30021;BME280;16861;52.294;7.760;2022-07-10T08:44:43;100680.13;;;20.59;49.96
30021;BME280;16861;52.294;7.760;2022-07-10T08:47:09;100679.72;;;20.63;49.92
30021;BME280;16861;52.294;7.760;2022-07-10T08:49:46;100699.88;;;20.67;49.57
30021;BME280;16861;52.294;7.760;2022-07-10T08:52:26;100688.94;;;20.70;49.18
30021;BME280;16861;52.294;7.760;2022-07-10T08:54:53;100687.25;;;20.69;49.28
30021;BME280;16861;52.294;7.760;2022-07-10T08:57:22;100694.53;;;20.67;49.15
30021;BME280;16861;52.294;7.760;2022-07-10T08:59:49;100684.94;;;20.65;49.44
30021;BME280;16861;52.294;7.760;2022-07-10T09:02:15;100682.41;;;20.63;49.37
30021;BME280;16861;52.294;7.760;2022-07-10T09:04:42;100684.38;;;20.61;49.73
30021;BME280;16861;52.294;7.760;2022-07-10T09:07:09;100682.41;;;20.63;49.79
30021;BME280;16861;52.294;7.760;2022-07-10T09:09:54;100680.97;;;20.59;49.73
30021;BME280;16861;52.294;7.760;2022-07-10T09:12:22;100679.34;;;20.68;49.44
30021;BME280;16861;52.294;7.760;2022-07-10T09:14:49;100680.03;;;20.70;49.50
30021;BME280;16861;52.294;7.760;2022-07-10T09:17:17;100680.91;;;20.70;49.30
30021;BME280;16861;52.294;7.760;2022-07-10T09:19:44;100680.16;;;20.68;49.42
30021;BME280;16861;52.294;7.760;2022-07-10T09:22:12;100680.47;;;20.65;49.21
30021;BME280;16861;52.294;7.760;2022-07-10T09:24:43;100677.03;;;20.63;49.42
30021;BME280;16861;52.294;7.760;2022-07-10T09:27:14;100673.66;;;20.61;49.46
30021;BME280;16861;52.294;7.760;2022-07-10T09:32:18;100682.53;;;20.62;49.53
30021;BME280;16861;52.294;7.760;2022-07-10T09:34:47;100680.00;;;20.60;49.86
30021;BME280;16861;52.294;7.760;2022-07-10T09:37:21;100674.06;;;20.56;49.86
30021;BME280;16861;52.294;7.760;2022-07-10T09:40:04;100682.19;;;20.55;50.07
30021;BME280;16861;52.294;7.760;2022-07-10T09:47:44;100678.38;;;20.48;50.40
30021;BME280;16861;52.294;7.760;2022-07-10T09:50:31;100672.22;;;20.36;50.60
30021;BME280;16861;52.294;7.760;2022-07-10T09:52:59;100669.69;;;20.34;50.60
30021;BME280;16861;52.294;7.760;2022-07-10T09:55:28;100677.50;;;20.26;50.93
30021;BME280;16861;52.294;7.760;2022-07-10T09:58:02;100682.34;;;20.21;51.30
30021;BME280;16861;52.294;7.760;2022-07-10T10:00:31;100680.94;;;20.16;51.70
30021;BME280;16861;52.294;7.760;2022-07-10T10:03:00;100697.22;;;20.13;52.23
30021;BME280;16861;52.294;7.760;2022-07-10T10:05:42;100685.34;;;20.06;53.05
30021;BME280;16861;52.294;7.760;2022-07-10T10:08:16;100692.78;;;20.02;53.92
30021;BME280;16861;52.294;7.760;2022-07-10T10:10:45;100685.59;;;20.03;53.34
30021;BME280;16861;52.294;7.760;2022-07-10T10:13:19;100681.22;;;20.02;54.29
30021;BME280;16861;52.294;7.760;2022-07-10T10:15:48;100679.16;;;20.05;53.86
30021;BME280;16861;52.294;7.760;2022-07-10T10:18:24;100684.22;;;20.09;54.08
30021;BME280;16861;52.294;7.760;2022-07-10T10:20:54;100673.19;;;20.13;54.54
30021;BME280;16861;52.294;7.760;2022-07-10T10:23:23;100672.66;;;20.20;54.36
30021;BME280;16861;52.294;7.760;2022-07-10T10:25:55;100670.59;;;20.23;55.29
30021;BME280;16861;52.294;7.760;2022-07-10T10:28:26;100661.06;;;20.30;54.85
30021;BME280;16861;52.294;7.760;2022-07-10T10:30:57;100664.19;;;20.36;54.37
30021;BME280;16861;52.294;7.760;2022-07-10T10:36:14;100678.63;;;20.44;53.78
30021;BME280;16861;52.294;7.760;2022-07-10T10:41:25;100674.06;;;20.35;54.60
30021;BME280;16861;52.294;7.760;2022-07-10T10:47:02;100667.38;;;20.29;56.28
30021;BME280;16861;52.294;7.760;2022-07-10T10:49:49;100665.28;;;20.33;56.01
30021;BME280;16861;52.294;7.760;2022-07-10T10:52:17;100657.47;;;20.41;55.58
30021;BME280;16861;52.294;7.760;2022-07-10T10:57:44;100659.00;;;20.55;55.81
30021;BME280;16861;52.294;7.760;2022-07-10T11:00:13;100658.31;;;20.63;55.76
30021;BME280;16861;52.294;7.760;2022-07-10T11:02:43;100647.94;;;20.70;55.41
30021;BME280;16861;52.294;7.760;2022-07-10T11:08:02;100646.00;;;20.72;54.64
30021;BME280;16861;52.294;7.760;2022-07-10T11:13:03;100664.97;;;20.69;54.40
30021;BME280;16861;52.294;7.760;2022-07-10T11:15:32;100666.63;;;20.60;54.57
30021;BME280;16861;52.294;7.760;2022-07-10T11:18:08;100674.72;;;20.49;55.09
30021;BME280;16861;52.294;7.760;2022-07-10T11:20:44;100678.41;;;20.36;55.62
30021;BME280;16861;52.294;7.760;2022-07-10T11:26:20;100679.31;;;20.25;56.60
30021;BME280;16861;52.294;7.760;2022-07-10T11:28:59;100682.34;;;20.21;56.97
30021;BME280;16861;52.294;7.760;2022-07-10T11:31:27;100681.28;;;20.23;56.29
30021;BME280;16861;52.294;7.760;2022-07-10T11:33:56;100675.06;;;20.23;56.11
30021;BME280;16861;52.294;7.760;2022-07-10T11:36:24;100666.19;;;20.22;56.59
30021;BME280;16861;52.294;7.760;2022-07-10T11:39:03;100672.41;;;20.23;57.19
30021;BME280;16861;52.294;7.760;2022-07-10T11:41:31;100667.63;;;20.26;57.55
30021;BME280;16861;52.294;7.760;2022-07-10T11:43:59;100660.94;;;20.32;58.84
30021;BME280;16861;52.294;7.760;2022-07-10T11:46:29;100660.75;;;20.45;58.64
30021;BME280;16861;52.294;7.760;2022-07-10T11:48:56;100659.56;;;20.59;58.00
30021;BME280;16861;52.294;7.760;2022-07-10T11:51:28;100656.84;;;20.70;58.44
30021;BME280;16861;52.294;7.760;2022-07-10T11:53:56;100662.69;;;20.86;57.90
30021;BME280;16861;52.294;7.760;2022-07-10T11:56:24;100658.13;;;20.98;57.82
30021;BME280;16861;52.294;7.760;2022-07-10T11:58:56;100655.50;;;21.07;57.86
30021;BME280;16861;52.294;7.760;2022-07-10T12:01:23;100656.38;;;21.18;57.28
30021;BME280;16861;52.294;7.760;2022-07-10T12:04:01;100660.59;;;21.20;56.60
30021;BME280;16861;52.294;7.760;2022-07-10T12:06:31;100655.84;;;21.24;56.33
30021;BME280;16861;52.294;7.760;2022-07-10T12:09:06;100658.78;;;21.21;56.70
30021;BME280;16861;52.294;7.760;2022-07-10T12:11:35;100658.66;;;21.22;56.57
30021;BME280;16861;52.294;7.760;2022-07-10T12:14:13;100654.56;;;21.18;57.01
30021;BME280;16861;52.294;7.760;2022-07-10T12:16:42;100658.78;;;21.21;55.98
30021;BME280;16861;52.294;7.760;2022-07-10T12:19:16;100657.38;;;21.17;55.69
30021;BME280;16861;52.294;7.760;2022-07-10T12:21:46;100654.81;;;21.15;55.59
30021;BME280;16861;52.294;7.760;2022-07-10T12:24:15;100654.13;;;21.13;56.01
30021;BME280;16861;52.294;7.760;2022-07-10T12:26:43;100654.25;;;21.12;56.22
30021;BME280;16861;52.294;7.760;2022-07-10T12:32:00;100665.66;;;21.14;57.22
30021;BME280;16861;52.294;7.760;2022-07-10T12:34:36;100668.63;;;21.20;57.12
30021;BME280;16861;52.294;7.760;2022-07-10T12:37:07;100659.09;;;21.28;57.58
30021;BME280;16861;52.294;7.760;2022-07-10T12:39:48;100660.53;;;21.32;57.57
30021;BME280;16861;52.294;7.760;2022-07-10T12:42:29;100659.00;;;21.39;58.33
30021;BME280;16861;52.294;7.760;2022-07-10T12:45:13;100658.59;;;21.54;58.83
30021;BME280;16861;52.294;7.760;2022-07-10T12:47:44;100662.19;;;21.74;59.20
30021;BME280;16861;52.294;7.760;2022-07-10T12:50:12;100664.78;;;21.95;58.73
30021;BME280;16861;52.294;7.760;2022-07-10T12:52:39;100657.47;;;22.17;58.42
30021;BME280;16861;52.294;7.760;2022-07-10T12:55:08;100659.13;;;22.38;57.50
30021;BME280;16861;52.294;7.760;2022-07-10T13:00:16;100656.25;;;22.69;55.71
30021;BME280;16861;52.294;7.760;2022-07-10T13:02:46;100653.00;;;22.75;55.80
30021;BME280;16861;52.294;7.760;2022-07-10T13:05:49;100655.84;;;22.74;55.99
30021;BME280;16861;52.294;7.760;2022-07-10T13:08:20;100656.63;;;22.84;55.65
30021;BME280;16861;52.294;7.760;2022-07-10T13:13:16;100651.28;;;22.84;54.55
30021;BME280;16861;52.294;7.760;2022-07-10T13:15:44;100655.09;;;22.82;53.75
30021;BME280;16861;52.294;7.760;2022-07-10T13:18:21;100654.69;;;22.76;53.93
30021;BME280;16861;52.294;7.760;2022-07-10T13:20:49;100651.19;;;22.66;53.77
30021;BME280;16861;52.294;7.760;2022-07-10T13:23:25;100658.41;;;22.56;53.86
30021;BME280;16861;52.294;7.760;2022-07-10T13:25:52;100660.25;;;22.45;54.29
30021;BME280;16861;52.294;7.760;2022-07-10T13:28:19;100656.56;;;22.36;54.65
30021;BME280;16861;52.294;7.760;2022-07-10T13:30:46;100660.81;;;22.29;54.32
30021;BME280;16861;52.294;7.760;2022-07-10T13:33:13;100659.81;;;22.20;54.24